Time;durP1;ratioP1;P1;durP2;ratioP2;P2;SDS_P1;SDS_P2;PMS_P1;PMS_P2;Temp;Humidity;BMP_temperature;BMP_pressure;BME280_temperature;BME280_humidity;BME280_pressure;Samples;Min_cycle;Max_cycle;Signal;HPM_P1;HPM_P2
2024/02/24 00:00:30;;;;;;;6.10;4.45;;;;;;;13.03;54.44;98705.91;5037262;28;20033;-79
2024/02/24 00:02:55;;;;;;;7.15;5.05;;;;;;;13.04;54.38;98697.06;5053399;28;20035;-78
2024/02/24 00:05:25;;;;;;;8.43;4.88;;;;;;;13.01;54.45;98692.94;5036932;28;20469;-80
2024/02/24 00:07:51;;;;;;;8.45;5.57;;;;;;;13.01;54.42;98700.81;5053732;28;20025;-79
2024/02/24 00:10:17;;;;;;;9.88;5.80;;;;;;;12.99;54.70;98699.28;5019917;28;20064;-78
2024/02/24 00:12:42;;;;;;;8.65;5.63;;;;;;;12.97;54.49;98696.78;5036876;28;20079;-79
2024/02/24 00:15:09;;;;;;;7.72;5.47;;;;;;;12.96;54.63;98697.72;5036188;28;20160;-79
2024/02/24 00:17:34;;;;;;;16.70;6.85;;;;;;;12.93;54.64;98700.63;5053512;28;20100;-79
2024/02/24 00:20:00;;;;;;;7.85;5.88;;;;;;;12.92;54.78;98703.38;5053442;28;20381;-80
2024/02/24 00:22:25;;;;;;;7.53;5.63;;;;;;;12.92;54.65;98698.13;5053417;28;20032;-80
2024/02/24 00:24:51;;;;;;;9.07;6.32;;;;;;;12.91;54.99;98707.78;5054609;28;20064;-78
2024/02/24 00:27:16;;;;;;;10.15;6.10;;;;;;;12.91;54.94;98704.34;5036594;28;20087;-79
2024/02/24 00:29:41;;;;;;;9.70;5.70;;;;;;;12.89;54.71;98698.41;5053781;28;20041;-81
2024/02/24 00:32:07;;;;;;;8.85;5.78;;;;;;;12.88;54.64;98697.56;5054132;28;20037;-79
2024/02/24 00:34:32;;;;;;;7.70;5.63;;;;;;;12.86;54.98;98699.50;5054640;28;20435;-80
2024/02/24 00:36:58;;;;;;;10.23;5.90;;;;;;;12.84;54.96;98694.41;5036283;28;20151;-79
2024/02/24 00:39:23;;;;;;;8.13;5.65;;;;;;;12.82;54.76;98691.09;5052845;28;20041;-80
2024/02/24 00:41:52;;;;;;;7.82;5.47;;;;;;;12.84;54.98;98702.25;5052499;28;20037;-79
2024/02/24 00:44:17;;;;;;;;;;;;;;;12.83;54.77;98692.72;5053333;28;20056;-80
2024/02/24 00:46:43;;;;;;;8.93;5.18;;;;;;;12.80;55.00;98694.78;5036465;28;20384;-80
2024/02/24 00:49:08;;;;;;;7.82;5.05;;;;;;;12.71;54.87;98685.91;5053005;28;20463;-79
2024/02/24 00:51:34;;;;;;;8.07;5.75;;;;;;;12.78;55.23;98694.94;5036197;28;20029;-79
2024/02/24 00:53:59;;;;;;;9.50;5.50;;;;;;;12.73;55.18;98677.94;5036065;28;20029;-80
2024/02/24 00:56:25;;;;;;;7.72;5.40;;;;;;;12.77;55.20;98687.19;5052329;28;20427;-80
2024/02/24 00:58:50;;;;;;;6.70;5.07;;;;;;;12.76;55.04;98685.53;5036217;28;20048;-78
2024/02/24 01:01:16;;;;;;;7.60;5.22;;;;;;;12.71;55.20;98678.06;5053838;28;20428;-79
2024/02/24 01:03:41;;;;;;;7.35;5.05;;;;;;;12.72;55.11;98684.97;5035978;28;20499;-79
2024/02/24 01:06:07;;;;;;;7.00;4.78;;;;;;;12.74;55.27;98676.97;5036514;28;20473;-81
2024/02/24 01:08:32;;;;;;;7.65;4.68;;;;;;;12.70;55.23;98676.44;5036270;28;20032;-79
2024/02/24 01:10:58;;;;;;;7.97;5.00;;;;;;;12.71;55.06;98677.25;5035847;28;20083;-79
2024/02/24 01:13:23;;;;;;;8.40;5.18;;;;;;;12.69;55.13;98674.75;5053817;28;20024;-80
2024/02/24 01:15:49;;;;;;;8.13;5.20;;;;;;;12.69;55.27;98676.56;5052476;28;20554;-79
2024/02/24 01:18:14;;;;;;;5.93;4.40;;;;;;;12.63;55.33;98676.13;5035948;28;20094;-80
2024/02/24 01:20:40;;;;;;;6.53;4.78;;;;;;;12.62;55.44;98674.47;5053788;28;20029;-80
2024/02/24 01:23:06;;;;;;;7.35;4.65;;;;;;;12.61;55.56;98682.44;5052461;28;20029;-79
2024/02/24 01:25:31;;;;;;;6.10;4.45;;;;;;;12.63;55.41;98686.59;5053628;28;20091;-80
2024/02/24 01:27:57;;;;;;;8.25;4.70;;;;;;;12.62;55.35;98684.13;5052716;28;20098;-80
2024/02/24 01:30:24;;;;;;;6.05;4.03;;;;;;;12.61;55.54;98687.69;5035426;28;20485;-79
2024/02/24 01:32:50;;;;;;;6.47;4.43;;;;;;;12.59;55.48;98681.75;5053700;28;20032;-80
2024/02/24 01:35:15;;;;;;;6.68;4.57;;;;;;;12.58;55.31;98678.28;5051924;28;20044;-79
2024/02/24 01:37:41;;;;;;;6.75;4.55;;;;;;;12.57;55.12;98681.88;5051366;28;20348;-80
2024/02/24 01:40:07;;;;;;;6.55;4.60;;;;;;;12.56;55.33;98668.94;5053122;28;20033;-78
2024/02/24 01:42:32;;;;;;;9.07;5.47;;;;;;;12.49;55.58;98664.22;5053007;28;20025;-80
2024/02/24 01:44:58;;;;;;;5.88;4.40;;;;;;;12.53;55.30;98666.56;5035022;28;20199;-80
2024/02/24 01:47:23;;;;;;;5.93;4.30;;;;;;;12.52;55.71;98662.28;5035156;28;20029;-78
2024/02/24 01:49:50;;;;;;;6.10;4.30;;;;;;;12.48;55.53;98662.53;5051625;28;20522;-79
2024/02/24 01:52:16;;;;;;;6.05;4.40;;;;;;;12.47;55.39;98668.72;5035255;28;20025;-80
2024/02/24 01:54:41;;;;;;;5.40;4.10;;;;;;;12.43;55.49;98658.66;5018572;28;20442;-79
2024/02/24 01:57:07;;;;;;;7.15;4.20;;;;;;;12.42;55.69;98657.81;5051668;28;20025;-80
2024/02/24 01:59:32;;;;;;;5.65;4.25;;;;;;;12.45;55.76;98662.00;5034412;28;20049;-80
2024/02/24 02:01:58;;;;;;;5.65;4.30;;;;;;;12.43;55.61;98659.50;5035039;28;20029;-80
2024/02/24 02:04:25;;;;;;;5.85;4.10;;;;;;;12.38;55.41;98650.38;5018843;28;20436;-79
2024/02/24 02:06:50;;;;;;;5.13;3.90;;;;;;;12.40;55.87;98667.63;5035096;28;20112;-79
2024/02/24 02:09:16;;;;;;;8.43;4.18;;;;;;;12.38;55.46;98659.06;5051286;28;20036;-80
2024/02/24 02:11:43;;;;;;;5.32;4.00;;;;;;;12.38;55.67;98655.59;5051662;28;20105;-80
2024/02/24 02:14:11;;;;;;;6.07;4.40;;;;;;;12.36;55.50;98660.97;5051373;28;20530;-79
2024/02/24 02:16:39;;;;;;;5.18;4.03;;;;;;;12.34;55.60;98649.81;5035144;28;20100;-80
2024/02/24 02:19:05;;;;;;;5.35;3.75;;;;;;;12.36;55.58;98660.16;5052206;28;20484;-79
2024/02/24 02:21:31;;;;;;;5.80;4.00;;;;;;;12.35;55.97;98661.09;5051047;28;20041;-80
2024/02/24 02:23:57;;;;;;;6.57;4.38;;;;;;;12.30;55.87;98651.00;5050901;28;20514;-80
2024/02/24 02:26:23;;;;;;;6.15;4.40;;;;;;;12.33;55.55;98657.78;5051044;28;20025;-81
2024/02/24 02:28:48;;;;;;;6.30;4.20;;;;;;;12.31;55.77;98658.72;5050835;28;20021;-81
2024/02/24 02:31:14;;;;;;;6.15;4.05;;;;;;;12.26;55.59;98649.63;5034578;28;20045;-79
2024/02/24 02:33:40;;;;;;;5.45;3.95;;;;;;;12.28;55.77;98651.16;5050871;28;20045;-80
2024/02/24 02:36:06;;;;;;;6.93;4.75;;;;;;;12.27;56.01;98654.75;5052406;28;20068;-82
2024/02/24 02:38:31;;;;;;;4.97;4.00;;;;;;;12.27;56.13;98656.50;5050609;28;20112;-79
2024/02/24 02:40:57;;;;;;;5.97;3.90;;;;;;;12.26;55.74;98660.09;5050593;28;20036;-78
2024/02/24 02:43:22;;;;;;;5.10;3.78;;;;;;;12.25;56.12;98661.06;5034577;28;20408;-79
2024/02/24 02:45:48;;;;;;;5.88;4.15;;;;;;;12.25;56.11;98661.06;5050666;28;20493;-80
2024/02/24 02:48:13;;;;;;;6.13;4.20;;;;;;;12.19;55.93;98654.56;5052076;28;20427;-80
2024/02/24 02:50:39;;;;;;;5.13;3.88;;;;;;;12.22;56.28;98658.69;5051083;28;20091;-80
2024/02/24 02:53:04;;;;;;;5.40;3.72;;;;;;;12.18;55.82;98649.47;5051760;28;20469;-80
2024/02/24 02:55:30;;;;;;;5.60;3.90;;;;;;;12.21;56.15;98660.50;5034089;28;20369;-80
2024/02/24 02:57:55;;;;;;;6.13;3.53;;;;;;;12.21;56.16;98667.53;5034303;28;20051;-81
2024/02/24 03:00:21;;;;;;;5.82;3.90;;;;;;;12.19;55.92;98672.88;5051839;28;20021;-80
2024/02/24 03:02:47;;;;;;;5.13;3.33;;;;;;;12.19;55.86;98674.66;5033715;28;20040;-81
2024/02/24 03:05:12;;;;;;;6.22;3.80;;;;;;;12.17;56.10;98680.00;5033561;28;20041;-79
2024/02/24 03:07:38;;;;;;;5.35;3.63;;;;;;;12.16;56.04;98675.75;5056376;28;20579;-80
2024/02/24 03:10:04;;;;;;;5.03;3.92;;;;;;;12.15;56.24;98678.50;5057450;28;20408;-81
2024/02/24 03:12:29;;;;;;;4.70;3.70;;;;;;;12.10;56.25;98669.22;5040804;28;20068;-81
2024/02/24 03:14:56;;;;;;;5.60;4.10;;;;;;;12.12;56.32;98682.19;5057402;28;20547;-81
2024/02/24 03:17:22;;;;;;;6.05;3.88;;;;;;;12.10;55.93;98678.88;5040555;28;20043;-79
2024/02/24 03:19:47;;;;;;;4.93;3.53;;;;;;;12.09;56.20;98675.41;5057145;28;20041;-81
2024/02/24 03:22:12;;;;;;;5.53;3.63;;;;;;;12.06;56.04;98670.44;5040562;28;20476;-78
2024/02/24 03:24:42;;;;;;;8.07;4.25;;;;;;;12.06;56.21;98673.06;5057123;28;20033;-80
2024/02/24 03:27:08;;;;;;;5.38;3.50;;;;;;;12.01;56.13;98663.94;5056950;28;20477;-79
2024/02/24 03:29:33;;;;;;;6.45;4.10;;;;;;;12.04;56.36;98669.75;5057384;28;20103;-81
2024/02/24 03:32:00;;;;;;;5.20;4.05;;;;;;;12.02;56.56;98681.28;5040183;28;20033;-79
2024/02/24 03:34:26;;;;;;;4.90;3.60;;;;;;;12.00;56.38;98680.59;5056724;28;20029;-80
2024/02/24 03:36:51;;;;;;;6.70;4.10;;;;;;;12.00;56.18;98693.66;5040189;28;20060;-80
2024/02/24 03:39:18;;;;;;;7.47;4.50;;;;;;;11.98;56.39;98680.72;5056741;28;20029;-80
2024/02/24 03:41:45;;;;;;;5.95;4.07;;;;;;;11.97;56.48;98679.06;5058136;28;20094;-79
2024/02/24 03:44:10;;;;;;;7.80;5.05;;;;;;;11.97;56.53;98683.47;5058152;28;20115;-80
2024/02/24 03:46:36;;;;;;;9.05;5.47;;;;;;;11.96;56.61;98677.41;5057067;28;20060;-79
2024/02/24 03:49:04;;;;;;;7.10;4.95;;;;;;;11.94;56.30;98681.94;5057807;28;20029;-79
2024/02/24 03:51:29;;;;;;;7.57;5.10;;;;;;;11.91;56.61;98690.84;5056889;28;20037;-79
2024/02/24 03:53:55;;;;;;;9.18;5.82;;;;;;;11.91;56.48;98684.78;5023842;28;20040;-80
2024/02/24 03:56:21;;;;;;;8.27;5.28;;;;;;;11.89;56.45;98681.44;5057603;28;20463;-80
2024/02/24 03:58:47;;;;;;;6.72;5.20;;;;;;;11.84;56.58;98684.44;5057912;28;20033;-81
2024/02/24 04:01:12;;;;;;;8.20;5.80;;;;;;;11.86;56.55;98694.78;5040218;28;20044;-80
2024/02/24 04:03:38;;;;;;;8.43;5.60;;;;;;;11.83;56.67;98693.25;5057948;28;20033;-80
2024/02/24 04:06:04;;;;;;;9.18;5.40;;;;;;;11.83;56.94;98688.03;5057151;28;20028;-81
2024/02/24 04:08:30;;;;;;;8.40;5.70;;;;;;;11.83;56.87;98692.41;5040245;28;20082;-80
2024/02/24 04:10:55;;;;;;;7.80;5.15;;;;;;;11.80;56.81;98685.66;5057968;28;20033;-80
2024/02/24 04:13:21;;;;;;;6.95;4.90;;;;;;;11.80;57.02;98692.66;5056877;28;20086;-80
2024/02/24 04:15:50;;;;;;;7.47;4.85;;;;;;;11.79;57.00;98693.63;5040281;28;20471;-80
2024/02/24 04:18:16;;;;;;;7.07;4.78;;;;;;;11.73;56.92;98682.72;5053527;28;20033;-79
2024/02/24 04:20:43;;;;;;;7.88;5.35;;;;;;;11.75;56.73;98682.59;5053627;28;20104;-80
2024/02/24 04:23:09;;;;;;;7.05;4.72;;;;;;;11.74;56.67;98705.28;5036843;28;20033;-79
2024/02/24 04:25:34;;;;;;;7.22;4.95;;;;;;;11.73;56.77;98698.41;5036365;28;20095;-79
2024/02/24 04:28:00;;;;;;;7.88;4.70;;;;;;;11.71;56.65;98705.53;5054929;28;20133;-80
2024/02/24 04:30:25;;;;;;;6.72;4.85;;;;;;;11.68;56.94;98705.78;5054615;28;20033;-80
2024/02/24 04:32:51;;;;;;;7.50;4.45;;;;;;;11.64;56.96;98696.53;5053558;28;20037;-81
2024/02/24 04:35:16;;;;;;;6.57;4.75;;;;;;;11.69;57.00;98709.25;5053070;28;20024;-80
2024/02/24 04:37:42;;;;;;;8.48;4.70;;;;;;;11.68;57.04;98704.97;5037132;28;20477;-79
2024/02/24 04:40:08;;;;;;;5.65;4.05;;;;;;;11.67;56.85;98712.00;5054689;28;20033;-79
2024/02/24 04:42:33;;;;;;;6.18;4.40;;;;;;;11.65;57.16;98713.88;5036448;28;20083;-80
2024/02/24 04:44:59;;;;;;;6.05;4.43;;;;;;;11.65;57.16;98707.81;5036342;28;20049;-80
2024/02/24 04:47:25;;;;;;;6.43;4.32;;;;;;;11.62;56.77;98706.28;5036967;28;20136;-80
2024/02/24 04:49:51;;;;;;;6.28;4.38;;;;;;;11.63;57.19;98709.75;5054532;28;20040;-80
2024/02/24 04:52:17;;;;;;;6.28;4.40;;;;;;;11.63;57.04;98721.03;5054817;28;20032;-81
2024/02/24 04:54:42;;;;;;;5.95;4.40;;;;;;;11.66;57.12;98728.63;5036850;28;20048;-79
2024/02/24 04:57:08;;;;;;;6.90;4.53;;;;;;;11.67;56.96;98730.28;5053392;28;20063;-80
2024/02/24 04:59:34;;;;;;;7.30;4.13;;;;;;;11.62;57.05;98735.03;5052655;28;20044;-79
2024/02/24 05:02:00;;;;;;;6.03;3.70;;;;;;;11.69;57.01;98740.63;5054362;28;20029;-80
2024/02/24 05:04:26;;;;;;;8.43;4.57;;;;;;;11.70;56.92;98737.03;5054130;28;20099;-80
2024/02/24 05:06:51;;;;;;;7.03;4.60;;;;;;;11.75;56.58;98742.75;5054490;28;20028;-81
2024/02/24 05:09:17;;;;;;;5.38;3.90;;;;;;;11.97;56.04;98749.72;5054169;28;20040;-79
2024/02/24 05:11:42;;;;;;;6.53;4.32;;;;;;;12.25;55.71;98750.03;5053281;28;20393;-80
2024/02/24 05:14:08;;;;;;;5.88;4.22;;;;;;;12.56;54.82;98753.53;5052502;28;20041;-80
2024/02/24 05:16:35;;;;;;;5.55;3.63;;;;;;;12.98;53.47;98765.72;5036367;28;20420;-79
2024/02/24 05:19:00;;;;;;;4.85;3.42;;;;;;;13.41;52.69;98755.97;5052669;28;20028;-81
2024/02/24 05:21:26;;;;;;;5.68;3.58;;;;;;;13.81;52.17;98752.44;5036148;28;20400;-79
2024/02/24 05:23:51;;;;;;;5.30;3.70;;;;;;;14.27;51.26;98750.91;5056461;28;20040;-79
2024/02/24 05:26:26;;;;;;;4.90;3.58;;;;;;;14.75;50.41;98760.50;5054648;28;20048;-80
2024/02/24 05:28:52;;;;;;;4.13;3.28;;;;;;;15.18;49.17;98752.97;5052756;28;20082;-80
2024/02/24 05:31:18;;;;;;;5.70;3.60;;;;;;;15.42;48.66;98762.13;5052129;28;20028;-79
2024/02/24 05:33:45;;;;;;;4.30;3.40;;;;;;;15.89;47.91;98768.09;5035786;28;20479;-79
2024/02/24 05:36:10;;;;;;;5.75;3.78;;;;;;;16.40;46.51;98765.72;5019363;28;20052;-79
2024/02/24 05:38:36;;;;;;;4.72;3.25;;;;;;;16.93;45.62;98773.66;5053388;28;20493;-80
2024/02/24 05:41:02;;;;;;;4.40;3.22;;;;;;;17.34;44.61;98755.34;5052895;28;20036;-79
2024/02/24 05:43:28;;;;;;;5.85;3.20;;;;;;;17.95;43.37;98774.50;5052238;28;20448;-79
2024/02/24 05:45:54;;;;;;;3.88;3.17;;;;;;;18.40;42.71;98777.66;5051420;28;20045;-79
2024/02/24 05:48:20;;;;;;;5.57;3.38;;;;;;;18.61;42.31;98775.31;5035116;28;20033;-79
2024/02/24 05:50:46;;;;;;;5.55;3.35;;;;;;;18.71;42.05;98772.47;5052651;28;20040;-79
2024/02/24 05:53:11;;;;;;;4.63;3.00;;;;;;;19.10;41.52;98778.84;5053192;28;20028;-81
2024/02/24 05:55:37;;;;;;;4.30;3.05;;;;;;;19.51;40.65;98781.31;5035020;28;20044;-80
2024/02/24 05:58:02;;;;;;;5.82;3.05;;;;;;;19.80;40.20;98779.88;5052782;28;20079;-79
2024/02/24 06:00:28;;;;;;;4.68;3.25;;;;;;;20.21;39.44;98792.84;5051517;28;20036;-78
2024/02/24 06:02:53;;;;;;;4.82;3.03;;;;;;;20.38;39.34;98798.81;5051585;28;20032;-80
2024/02/24 06:05:19;;;;;;;5.32;3.25;;;;;;;20.81;38.63;98803.59;5034468;28;20048;-79
2024/02/24 06:07:44;;;;;;;5.60;3.28;;;;;;;21.29;38.17;98817.34;5034721;28;20025;-79
2024/02/24 06:10:10;;;;;;;5.70;3.35;;;;;;;21.65;37.60;98808.63;5052443;28;20044;-79
2024/02/24 06:12:35;;;;;;;4.35;3.10;;;;;;;22.00;37.00;98806.13;5052624;28;20025;-78
2024/02/24 06:15:01;;;;;;;4.35;2.83;;;;;;;22.40;37.10;98803.84;5051470;28;20032;-78
2024/02/24 06:17:27;;;;;;;4.78;3.10;;;;;;;22.78;36.35;98806.19;5052557;28;20025;-79
2024/02/24 06:19:52;;;;;;;4.38;3.20;;;;;;;23.20;36.06;98809.75;5052412;28;20044;-78
2024/02/24 06:22:18;;;;;;;5.55;3.13;;;;;;;23.65;35.57;98814.66;5051268;28;20082;-79
2024/02/24 06:24:43;;;;;;;6.40;3.88;;;;;;;24.07;35.00;98822.56;5034416;28;20106;-78
2024/02/24 06:27:08;;;;;;;10.80;7.90;;;;;;;24.50;34.28;98823.03;5052524;28;20507;-80
2024/02/24 06:29:34;;;;;;;9.98;6.93;;;;;;;24.91;33.82;98822.00;5034938;28;20037;-79
2024/02/24 06:31:59;;;;;;;10.60;8.73;;;;;;;25.34;33.44;98817.22;5051963;28;20041;-80
2024/02/24 06:34:25;;;;;;;9.48;7.70;;;;;;;25.73;32.87;98823.41;5052200;28;20028;-78
2024/02/24 06:36:50;;;;;;;9.35;7.40;;;;;;;26.17;32.34;98825.25;5051058;28;20487;-79
2024/02/24 06:39:16;;;;;;;10.95;8.05;;;;;;;26.54;32.07;98813.84;5052173;28;20039;-79
2024/02/24 06:41:41;;;;;;;10.77;8.40;;;;;;;26.99;31.51;98824.38;5033433;28;20033;-78
2024/02/24 06:44:07;;;;;;;12.57;10.10;;;;;;;27.40;30.97;98830.13;5034119;28;20028;-79
2024/02/24 06:46:32;;;;;;;12.65;9.25;;;;;;;27.81;30.57;98831.28;5052944;28;20075;-80
2024/02/24 06:48:58;;;;;;;11.90;8.65;;;;;;;28.20;30.21;98823.75;5052024;28;20078;-78
2024/02/24 06:51:23;;;;;;;11.23;9.15;;;;;;;28.62;29.92;98830.94;5051020;28;20087;-78
2024/02/24 06:53:49;;;;;;;12.20;9.82;;;;;;;29.03;29.17;98824.66;5051982;28;20044;-77
2024/02/24 06:56:14;;;;;;;10.50;8.95;;;;;;;29.54;28.73;98816.84;5051977;28;20025;-78
2024/02/24 06:58:40;;;;;;;9.93;8.25;;;;;;;30.20;27.54;98823.69;5034662;28;20025;-79
2024/02/24 07:01:05;;;;;;;13.88;9.45;;;;;;;30.97;26.74;98819.56;5050115;28;20045;-79
2024/02/24 07:03:32;;;;;;;11.25;9.52;;;;;;;31.90;25.70;98832.28;5050732;28;20098;-80
2024/02/24 07:05:59;;;;;;;12.23;8.80;;;;;;;32.94;24.61;98822.09;5033906;28;20394;-79
2024/02/24 07:08:25;;;;;;;10.55;8.48;;;;;;;34.08;23.37;98826.03;5033851;28;20283;-79
2024/02/24 07:10:50;;;;;;;9.20;7.35;;;;;;;35.17;21.92;98813.19;5050363;28;20041;-78
2024/02/24 07:13:16;;;;;;;8.25;7.43;;;;;;;36.06;21.19;98821.44;5050620;28;20033;-79
2024/02/24 07:15:41;;;;;;;7.78;6.80;;;;;;;36.84;20.40;98822.41;5051660;28;20473;-79
2024/02/24 07:18:07;;;;;;;9.05;6.18;;;;;;;37.46;19.54;98821.69;5050624;28;20029;-81
2024/02/24 07:20:32;;;;;;;7.40;6.00;;;;;;;38.13;18.86;98820.75;5033664;28;20539;-78
2024/02/24 07:22:58;;;;;;;7.03;5.85;;;;;;;38.70;18.37;98828.84;5051776;28;20041;-79
2024/02/24 07:25:23;;;;;;;6.85;5.55;;;;;;;39.21;18.14;98825.13;5033571;28;20037;-79
2024/02/24 07:27:49;;;;;;;7.20;5.55;;;;;;;39.57;17.71;98824.41;5017518;28;20037;-78
2024/02/24 07:30:14;;;;;;;6.63;4.80;;;;;;;39.71;17.66;98818.06;5051854;28;20503;-78
2024/02/24 07:32:40;;;;;;;7.13;4.45;;;;;;;39.66;17.53;98824.47;5050431;28;20041;-80
2024/02/24 07:35:06;;;;;;;5.43;4.57;;;;;;;39.40;17.74;98832.41;5034071;28;20029;-80
2024/02/24 07:37:31;;;;;;;5.32;4.18;;;;;;;39.29;17.96;98834.53;5051999;28;20028;-78
2024/02/24 07:39:57;;;;;;;4.65;4.10;;;;;;;39.13;18.11;98827.78;5050105;28;20488;-79
2024/02/24 07:42:24;;;;;;;5.88;4.15;;;;;;;38.54;18.60;98828.28;5033794;28;20044;-79
2024/02/24 07:44:49;;;;;;;6.45;4.25;;;;;;;37.98;19.53;98824.53;5049940;28;20110;-79
2024/02/24 07:47:15;;;;;;;7.03;4.55;;;;;;;37.46;20.00;98819.81;5051906;28;20484;-79
2024/02/24 07:49:40;;;;;;;8.73;6.20;;;;;;;37.18;20.38;98829.66;5050425;28;20036;-79
2024/02/24 07:52:06;;;;;;;7.47;5.15;;;;;;;36.81;20.74;98827.63;5052488;28;20033;-79
2024/02/24 07:54:31;;;;;;;6.05;4.60;;;;;;;36.51;20.97;98824.06;5056011;28;20029;-83
2024/02/24 07:56:57;;;;;;;7.60;4.82;;;;;;;36.22;21.62;98824.84;5054078;28;20045;-81
2024/02/24 07:59:22;;;;;;;5.45;4.30;;;;;;;35.98;22.07;98827.47;5037307;28;20033;-80
2024/02/24 08:01:48;;;;;;;6.38;4.63;;;;;;;35.80;22.16;98831.66;5055299;28;20388;-79
2024/02/24 08:04:14;;;;;;;6.00;4.53;;;;;;;35.61;22.35;98829.56;5054314;28;20029;-81
2024/02/24 08:06:40;;;;;;;5.70;4.00;;;;;;;35.44;22.41;98827.22;5054466;28;20494;-79
2024/02/24 08:09:06;;;;;;;8.32;4.57;;;;;;;35.33;23.03;98831.88;5053856;28;20286;-79
2024/02/24 08:11:39;;;;;;;5.40;3.88;;;;;;;35.19;23.29;98821.84;5055062;28;20033;-79
2024/02/24 08:14:08;;;;;;;5.70;3.92;;;;;;;35.05;23.50;98827.06;5054197;28;20035;-81
2024/02/24 08:16:34;;;;;;;5.35;3.75;;;;;;;35.09;23.63;98838.97;5037521;28;20116;-81
2024/02/24 08:19:00;;;;;;;4.95;3.70;;;;;;;35.08;23.88;98829.22;5037237;28;20049;-81
2024/02/24 08:21:26;;;;;;;5.60;3.50;;;;;;;35.05;23.66;98837.91;5037602;28;20044;-78
2024/02/24 08:23:52;;;;;;;4.22;3.20;;;;;;;35.03;23.74;98837.38;5054694;28;20099;-78
2024/02/24 08:26:17;;;;;;;3.50;2.88;;;;;;;35.02;23.76;98842.00;5020437;28;20041;-80
2024/02/24 08:28:43;;;;;;;6.22;3.00;;;;;;;35.07;23.85;98846.59;5036776;28;20052;-79
2024/02/24 08:31:08;;;;;;;4.88;3.10;;;;;;;34.98;23.81;98849.03;5053736;28;20060;-79
2024/02/24 08:33:34;;;;;;;4.68;3.05;;;;;;;34.98;24.05;98849.03;5053389;28;20037;-80
2024/02/24 08:35:59;;;;;;;4.60;2.95;;;;;;;35.04;24.14;98847.94;5053988;28;20037;-81
2024/02/24 08:38:27;;;;;;;4.13;2.70;;;;;;;35.12;23.79;98844.69;5053487;28;20035;-80
2024/02/24 08:40:54;;;;;;;3.97;2.50;;;;;;;35.14;24.06;98844.41;5037293;28;20091;-79
2024/02/24 08:43:19;;;;;;;4.03;2.60;;;;;;;35.22;24.05;98843.81;5053068;28;20045;-80
2024/02/24 08:45:45;;;;;;;3.63;2.58;;;;;;;35.27;24.15;98840.31;5052977;28;20663;-81
2024/02/24 08:48:12;;;;;;;4.22;2.70;;;;;;;35.26;24.19;98849.53;5036607;28;20032;-82
2024/02/24 08:50:38;;;;;;;3.80;2.65;;;;;;;35.28;24.14;98855.50;5054535;28;20028;-80
2024/02/24 08:53:04;;;;;;;4.00;2.90;;;;;;;35.20;24.46;98848.69;5036780;28;20044;-80
2024/02/24 08:55:29;;;;;;;4.43;2.92;;;;;;;35.21;24.30;98855.75;5019860;28;20465;-80
2024/02/24 08:57:55;;;;;;;5.70;2.97;;;;;;;35.22;24.29;98849.25;5053647;28;20021;-82
2024/02/24 09:00:21;;;;;;;6.90;3.15;;;;;;;35.24;24.36;98852.50;5036739;28;20041;-80
2024/02/24 09:02:47;;;;;;;4.20;2.60;;;;;;;35.26;24.25;98858.47;5020085;28;20069;-80
2024/02/24 09:05:13;;;;;;;4.45;2.63;;;;;;;35.28;24.09;98856.31;5019085;28;20033;-81
2024/02/24 09:07:38;;;;;;;3.35;2.45;;;;;;;35.31;24.08;98857.66;5052369;28;20099;-78
2024/02/24 09:10:04;;;;;;;6.10;2.85;;;;;;;35.35;23.74;98856.00;5053829;28;20031;-79
2024/02/24 09:12:30;;;;;;;3.78;2.72;;;;;;;35.37;23.70;98856.53;5053503;28;20033;-80
2024/02/24 09:14:55;;;;;;;4.15;2.60;;;;;;;35.40;23.76;98857.91;5052355;28;20028;-80
2024/02/24 09:17:21;;;;;;;7.05;2.63;;;;;;;35.44;23.65;98856.25;5052409;28;20408;-79
2024/02/24 09:19:46;;;;;;;4.40;2.80;;;;;;;35.51;23.61;98856.75;5052498;28;20402;-79
2024/02/24 09:22:12;;;;;;;3.33;2.40;;;;;;;35.62;23.40;98847.47;5054078;28;20033;-79
2024/02/24 09:24:37;;;;;;;5.43;2.50;;;;;;;35.90;23.09;98847.06;5052153;28;20033;-79
2024/02/24 09:27:03;;;;;;;3.78;2.30;;;;;;;35.92;23.13;98851.13;5035588;28;20469;-80
2024/02/24 09:29:28;;;;;;;4.47;2.00;;;;;;;35.96;23.06;98845.94;5019157;28;20120;-80
2024/02/24 09:31:54;;;;;;;4.05;2.30;;;;;;;35.94;23.15;98845.44;5019213;28;20033;-80
2024/02/24 09:34:20;;;;;;;6.30;2.22;;;;;;;35.83;23.20;98840.03;5052377;28;20481;-79
2024/02/24 09:36:45;;;;;;;4.18;2.33;;;;;;;35.85;23.07;98848.75;5035783;28;20044;-78
2024/02/24 09:39:13;;;;;;;3.47;2.03;;;;;;;35.84;23.15;98855.25;5035698;28;20399;-78
2024/02/24 09:41:39;;;;;;;4.97;2.17;;;;;;;35.83;23.43;98848.19;5053255;28;20061;-80
2024/02/24 09:44:04;;;;;;;4.40;2.05;;;;;;;35.73;23.80;98859.09;5035860;28;20025;-79
2024/02/24 09:46:30;;;;;;;4.07;2.20;;;;;;;35.68;23.79;98843.66;5053406;28;20106;-80
2024/02/24 09:48:55;;;;;;;4.15;1.88;;;;;;;35.51;23.98;98844.00;5035577;28;20037;-79
2024/02/24 09:51:21;;;;;;;3.95;2.00;;;;;;;35.52;24.12;98839.41;5035254;28;20040;-80
2024/02/24 09:53:46;;;;;;;3.03;2.13;;;;;;;35.25;24.46;98835.16;5053013;28;20032;-79
2024/02/24 09:56:13;;;;;;;3.53;1.95;;;;;;;35.23;24.29;98839.22;5035308;28;20405;-80
2024/02/24 09:58:39;;;;;;;3.28;1.90;;;;;;;35.25;23.74;98851.44;5035407;28;20029;-80
2024/02/24 10:01:04;;;;;;;2.40;1.80;;;;;;;35.21;23.98;98839.47;5035092;28;20040;-78
2024/02/24 10:03:30;;;;;;;3.90;2.13;;;;;;;34.99;24.15;98847.16;5051487;28;20036;-80
2024/02/24 10:05:55;;;;;;;3.75;2.13;;;;;;;34.86;24.43;98843.13;5034913;28;20029;-79
2024/02/24 10:08:22;;;;;;;5.28;2.00;;;;;;;34.63;24.76;98830.91;5051393;28;20059;-80
2024/02/24 10:10:47;;;;;;;3.78;2.10;;;;;;;34.40;25.26;98828.50;5018370;28;20041;-80
2024/02/24 10:13:16;;;;;;;3.47;1.95;;;;;;;34.32;25.29;98829.06;5034886;28;20037;-81
2024/02/24 10:15:43;;;;;;;4.07;2.10;;;;;;;34.15;25.27;98833.88;5050455;28;20029;-79
2024/02/24 10:18:09;;;;;;;2.47;1.88;;;;;;;34.10;25.68;98825.78;5035000;28;20072;-80
2024/02/24 10:20:34;;;;;;;3.55;1.85;;;;;;;34.08;25.63;98829.56;5034804;28;20060;-79
2024/02/24 10:23:00;;;;;;;3.00;1.80;;;;;;;34.07;25.79;98833.31;5052413;28;20037;-81
2024/02/24 10:25:25;;;;;;;2.60;1.85;;;;;;;34.00;25.73;98821.13;5052056;28;20056;-79
2024/02/24 10:27:51;;;;;;;4.05;1.95;;;;;;;33.90;25.95;98819.22;5034427;28;20487;-79
2024/02/24 10:30:17;;;;;;;3.88;2.00;;;;;;;33.81;25.94;98816.25;5034819;28;20147;-80
2024/02/24 10:32:42;;;;;;;3.85;2.03;;;;;;;33.75;26.15;98809.19;5034686;28;20025;-79
2024/02/24 10:35:11;;;;;;;4.18;2.05;;;;;;;33.74;26.53;98820.28;5018049;28;20040;-80
2024/02/24 10:37:36;;;;;;;3.80;2.05;;;;;;;33.61;26.17;98808.84;5051071;28;20545;-80
2024/02/24 10:40:04;;;;;;;4.05;2.15;;;;;;;33.50;26.33;98813.41;5034351;28;20045;-79
2024/02/24 10:42:29;;;;;;;4.78;2.10;;;;;;;33.38;26.53;98799.31;5018042;28;20396;-80
2024/02/24 10:44:55;;;;;;;3.95;1.90;;;;;;;33.31;26.68;98806.88;5033804;28;20060;-79
2024/02/24 10:47:21;;;;;;;3.60;2.05;;;;;;;33.17;26.52;98793.00;5034318;28;20043;-80
2024/02/24 10:49:47;;;;;;;5.10;2.08;;;;;;;33.06;26.85;98792.13;5051133;28;20037;-80
2024/02/24 10:52:13;;;;;;;3.20;2.20;;;;;;;32.95;26.60;98787.75;5052065;28;20369;-80
2024/02/24 10:54:39;;;;;;;3.75;2.22;;;;;;;32.81;26.58;98792.81;5034721;28;20037;-80
2024/02/24 10:57:05;;;;;;;3.67;1.85;;;;;;;32.66;26.84;98798.94;5018253;28;20087;-79
2024/02/24 10:59:31;;;;;;;2.65;1.83;;;;;;;32.50;27.20;98791.75;5050725;28;20040;-79
2024/02/24 11:02:03;;;;;;;4.20;2.00;;;;;;;32.25;27.32;98785.91;5034330;28;20377;-79
2024/02/24 11:04:29;;;;;;;4.03;2.03;;;;;;;32.12;27.01;98774.72;5034500;28;20519;-81
2024/02/24 11:06:55;;;;;;;4.75;2.03;;;;;;;32.00;27.43;98777.59;5050730;28;20033;-79
2024/02/24 11:09:35;;;;;;;2.55;1.70;;;;;;;31.84;27.69;98772.03;5034085;28;20087;-80
2024/02/24 11:12:07;;;;;;;3.63;2.00;;;;;;;31.71;27.80;98781.38;5050698;28;20032;-79
2024/02/24 11:14:34;;;;;;;2.90;1.80;;;;;;;31.52;27.88;98775.47;5050437;28;20059;-79
2024/02/24 11:17:02;;;;;;;4.57;2.00;;;;;;;31.37;28.29;98770.75;5034545;28;20083;-78
2024/02/24 11:19:47;;;;;;;3.15;1.83;;;;;;;31.11;27.79;98760.72;5034087;28;20061;-80
2024/02/24 11:22:27;;;;;;;3.30;1.73;;;;;;;30.88;27.17;98767.91;5034763;28;20047;-79
2024/02/24 11:25:03;;;;;;;3.67;1.80;;;;;;;30.67;27.29;98761.44;5034517;28;20489;-79
2024/02/24 11:27:36;;;;;;;3.78;1.60;;;;;;;30.53;27.34;98760.16;5035042;28;20163;-80